PWSweather.com
Personal Weather Stations
Station Observations
KMAMEDFI2
Medfield, MA 02052

Medfield, MA 02052

Lat: 42.1900822, Lon: -71.3296889

Elevation: 138

Station Type: Rainwise WS MK-III

http://www.medfieldweather.com

Latest ConditionsUpdated 7:20:00 PM EDT Friday, Apr 29, 2016
Currently Today's Max Today's Min Today's Average
Temperature 51.7°F10.9°C 61.4°F16.3°C 40.4°F4.7°C 50.6°F10.3°C
Dew Point 35.1°F1.7°C 40.0°F4.4°C 33.0°F0.6°C 37.2°F2.9°C
Winds 3.1 mph SE5.0 kmh SE 4.0 mph N6.4 kmh N - 1.9 mph 3.1 kmh
Wind Gusts 5.4 mph8.7 kmh 9.5 mph15.3 kmh - -
Humidity 53% 91% 37% 63%
Pressure 30.19 in1022.4 mb 30.27 in1025.1 mb 30.15 in1021.0 mb -
Hour Temp Dew Point Humidity Winds Wind Gusts Pressure Precip Precip Rate Daily Precip Total
07:20 PM 51.7°F10.9°C 35.1°F1.7°C 53% 3.1 mph SE5.0 kmh SE 5.4 mph8.7 kmh 30.19 in1022.4 mb - 0.00 in0.0 mm 0.00 in0.0 mm
07:10 PM 52.3°F11.3°C 36.1°F2.3°C 54% 3.9 mph SE6.3 kmh SE 5.4 mph8.7 kmh 30.19 in1022.4 mb - 0.00 in0.0 mm 0.00 in0.0 mm
07:00 PM 52.8°F11.6°C 36.2°F2.3°C 53% 3.2 mph ESE5.1 kmh ESE 8.1 mph13.0 kmh 30.19 in1022.4 mb - 0.00 in0.0 mm 0.00 in0.0 mm
06:50 PM 53.8°F12.1°C 36.1°F2.3°C 51% 2.2 mph SE3.5 kmh SE 5.4 mph8.7 kmh 30.19 in1022.4 mb - 0.00 in0.0 mm 0.00 in0.0 mm
06:40 PM 54.2°F12.3°C 36.4°F2.4°C 51% 2.4 mph SE3.9 kmh SE 2.7 mph4.3 kmh 30.19 in1022.4 mb - 0.00 in0.0 mm 0.00 in0.0 mm
06:30 PM 54.6°F12.6°C 36.3°F2.4°C 50% 1.8 mph SE2.9 kmh SE 5.4 mph8.7 kmh 30.18 in1022.0 mb - 0.00 in0.0 mm 0.00 in0.0 mm
06:10 PM 55.1°F12.8°C 35.7°F2.1°C 48% 2.5 mph SE4.0 kmh SE 2.7 mph4.3 kmh 30.18 in1022.0 mb - 0.00 in0.0 mm 0.00 in0.0 mm
06:00 PM 56.0°F13.3°C 36.0°F2.2°C 47% 3.1 mph SE5.0 kmh SE 6.7 mph10.8 kmh 30.19 in1022.4 mb - 0.00 in0.0 mm 0.00 in0.0 mm
05:50 PM 56.6°F13.7°C 36.1°F2.3°C 46% 2.7 mph SE4.3 kmh SE 8.1 mph13.0 kmh 30.19 in1022.4 mb - 0.00 in0.0 mm 0.00 in0.0 mm
05:40 PM 57.9°F14.4°C 36.7°F2.6°C 45% 1.7 mph SE2.7 kmh SE 2.7 mph4.3 kmh 30.19 in1022.4 mb - 0.00 in0.0 mm 0.00 in0.0 mm
05:30 PM 57.8°F14.3°C 37.7°F3.2°C 47% 2.1 mph SE3.4 kmh SE 5.4 mph8.7 kmh 30.19 in1022.4 mb - 0.00 in0.0 mm 0.00 in0.0 mm
05:20 PM 56.9°F13.8°C 37.4°F3.0°C 48% 2.7 mph SE4.3 kmh SE 5.4 mph8.7 kmh 30.19 in1022.4 mb - 0.00 in0.0 mm 0.00 in0.0 mm
05:10 PM 57.1°F13.9°C 38.6°F3.7°C 50% 2.5 mph E4.0 kmh E 4.1 mph6.6 kmh 30.19 in1022.4 mb - 0.00 in0.0 mm 0.00 in0.0 mm
05:00 PM 57.2°F14.0°C 39.3°F4.1°C 51% 3.5 mph NE5.6 kmh NE 4.1 mph6.6 kmh 30.19 in1022.4 mb - 0.00 in0.0 mm 0.00 in0.0 mm
04:50 PM 58.2°F14.6°C 38.6°F3.7°C 48% 2.6 mph ENE4.2 kmh ENE 8.1 mph13.0 kmh 30.19 in1022.4 mb - 0.00 in0.0 mm 0.00 in0.0 mm
04:40 PM 58.7°F14.8°C 38.5°F3.6°C 47% 3.4 mph ENE5.5 kmh ENE 8.1 mph13.0 kmh 30.19 in1022.4 mb - 0.00 in0.0 mm 0.00 in0.0 mm
04:30 PM 58.9°F14.9°C 38.7°F3.7°C 47% 3.6 mph NNE5.8 kmh NNE 8.1 mph13.0 kmh 30.19 in1022.4 mb - 0.00 in0.0 mm 0.00 in0.0 mm
04:10 PM 60.3°F15.7°C 37.7°F3.2°C 43% 2.6 mph E4.2 kmh E 5.4 mph8.7 kmh 30.19 in1022.4 mb - 0.00 in0.0 mm 0.00 in0.0 mm
04:00 PM 59.9°F15.5°C 37.4°F3.0°C 43% 3.2 mph SE5.1 kmh SE 8.1 mph13.0 kmh 30.19 in1022.4 mb - 0.00 in0.0 mm 0.00 in0.0 mm
03:50 PM 60.8°F16.0°C 34.3°F1.3°C 37% 3.4 mph SW5.5 kmh SW 5.4 mph8.7 kmh 30.19 in1022.4 mb - 0.00 in0.0 mm 0.00 in0.0 mm
03:40 PM 61.4°F16.3°C 37.5°F3.1°C 41% 3.0 mph SSW4.8 kmh SSW 5.4 mph8.7 kmh 30.19 in1022.4 mb - 0.00 in0.0 mm 0.00 in0.0 mm
03:30 PM 61.4°F16.3°C 37.4°F3.0°C 41% 3.3 mph SE5.3 kmh SE 4.1 mph6.6 kmh 30.19 in1022.4 mb - 0.00 in0.0 mm 0.00 in0.0 mm
03:10 PM 60.6°F15.9°C 36.7°F2.6°C 41% 3.0 mph E4.8 kmh E 5.4 mph8.7 kmh 30.19 in1022.4 mb - 0.00 in0.0 mm 0.00 in0.0 mm
03:00 PM 59.8°F15.4°C 37.2°F2.9°C 43% 3.0 mph SSW4.8 kmh SSW 8.1 mph13.0 kmh 30.19 in1022.4 mb - 0.00 in0.0 mm 0.00 in0.0 mm
02:50 PM 59.4°F15.2°C 35.6°F2.0°C 41% 3.7 mph SSW6.0 kmh SSW 8.1 mph13.0 kmh 30.20 in1022.7 mb - 0.00 in0.0 mm 0.00 in0.0 mm
02:40 PM 60.0°F15.6°C 36.8°F2.7°C 42% 2.5 mph SE4.0 kmh SE 8.1 mph13.0 kmh 30.20 in1022.7 mb - 0.00 in0.0 mm 0.00 in0.0 mm
02:30 PM 59.9°F15.5°C 36.2°F2.3°C 41% 2.3 mph SE3.7 kmh SE 8.1 mph13.0 kmh 30.20 in1022.7 mb - 0.00 in0.0 mm 0.00 in0.0 mm
02:20 PM 59.7°F15.4°C 35.9°F2.2°C 41% 2.6 mph NE4.2 kmh NE 5.4 mph8.7 kmh 30.21 in1023.0 mb - 0.00 in0.0 mm 0.00 in0.0 mm
02:10 PM 59.9°F15.5°C 37.4°F3.0°C 43% 3.5 mph SSE5.6 kmh SSE 6.7 mph10.8 kmh 30.21 in1023.0 mb - 0.00 in0.0 mm 0.00 in0.0 mm
02:00 PM 60.1°F15.6°C 38.1°F3.4°C 44% 3.0 mph ESE4.8 kmh ESE 5.4 mph8.7 kmh 30.22 in1023.4 mb - 0.00 in0.0 mm 0.00 in0.0 mm
01:50 PM 59.6°F15.3°C 37.0°F2.8°C 43% 2.8 mph ESE4.5 kmh ESE 5.4 mph8.7 kmh 30.22 in1023.4 mb - 0.00 in0.0 mm 0.00 in0.0 mm
01:40 PM 59.3°F15.2°C 36.8°F2.7°C 43% 3.0 mph SE4.8 kmh SE 5.4 mph8.7 kmh 30.22 in1023.4 mb - 0.00 in0.0 mm 0.00 in0.0 mm
01:30 PM 58.5°F14.7°C 36.7°F2.6°C 44% 3.3 mph E5.3 kmh E 2.7 mph4.3 kmh 30.23 in1023.7 mb - 0.00 in0.0 mm 0.00 in0.0 mm
01:20 PM 58.8°F14.9°C 36.9°F2.7°C 44% 3.4 mph SE5.5 kmh SE 5.4 mph8.7 kmh 30.23 in1023.7 mb - 0.00 in0.0 mm 0.00 in0.0 mm
01:00 PM 58.1°F14.5°C 37.4°F3.0°C 46% 2.6 mph NE4.2 kmh NE 8.1 mph13.0 kmh 30.24 in1024.0 mb - 0.00 in0.0 mm 0.00 in0.0 mm
12:50 PM 57.1°F13.9°C 36.0°F2.2°C 45% 3.3 mph ENE5.3 kmh ENE 6.7 mph10.8 kmh 30.25 in1024.4 mb - 0.00 in0.0 mm 0.00 in0.0 mm
12:40 PM 56.8°F13.8°C 36.2°F2.3°C 46% 2.5 mph NE4.0 kmh NE 6.7 mph10.8 kmh 30.25 in1024.4 mb - 0.00 in0.0 mm 0.00 in0.0 mm
12:30 PM 56.5°F13.6°C 35.9°F2.2°C 46% 3.4 mph SE5.5 kmh SE 5.4 mph8.7 kmh 30.25 in1024.4 mb - 0.00 in0.0 mm 0.00 in0.0 mm
12:20 PM 56.8°F13.8°C 36.2°F2.3°C 46% 2.7 mph NNE4.3 kmh NNE 5.4 mph8.7 kmh 30.25 in1024.4 mb - 0.00 in0.0 mm 0.00 in0.0 mm
12:10 PM 56.3°F13.5°C 36.3°F2.4°C 47% 3.9 mph E6.3 kmh E 6.7 mph10.8 kmh 30.26 in1024.7 mb - 0.00 in0.0 mm 0.00 in0.0 mm
12:00 PM 55.7°F13.2°C 37.4°F3.0°C 50% 3.8 mph ESE6.1 kmh ESE 5.4 mph8.7 kmh 30.26 in1024.7 mb - 0.00 in0.0 mm 0.00 in0.0 mm
11:50 AM 55.3°F12.9°C 35.4°F1.9°C 47% 4.0 mph N6.4 kmh N 9.5 mph15.3 kmh 30.27 in1025.1 mb - 0.00 in0.0 mm 0.00 in0.0 mm
11:40 AM 54.7°F12.6°C 34.3°F1.3°C 46% 2.3 mph S3.7 kmh S 5.4 mph8.7 kmh 30.27 in1025.1 mb - 0.00 in0.0 mm 0.00 in0.0 mm
11:10 AM 54.9°F12.7°C 34.5°F1.4°C 46% 3.2 mph SE5.1 kmh SE 4.1 mph6.6 kmh 30.27 in1025.1 mb - 0.00 in0.0 mm 0.00 in0.0 mm
11:00 AM 54.5°F12.5°C 36.3°F2.4°C 50% 2.0 mph E3.2 kmh E 5.4 mph8.7 kmh 30.27 in1025.1 mb - 0.00 in0.0 mm 0.00 in0.0 mm
10:20 AM 52.9°F11.6°C 34.8°F1.6°C 50% 3.9 mph NNW6.3 kmh NNW 5.4 mph8.7 kmh 30.26 in1024.7 mb - 0.00 in0.0 mm 0.00 in0.0 mm
10:10 AM 53.4°F11.9°C 35.7°F2.1°C 51% 3.0 mph S4.8 kmh S 8.1 mph13.0 kmh 30.26 in1024.7 mb - 0.00 in0.0 mm 0.00 in0.0 mm
10:00 AM 52.8°F11.6°C 36.2°F2.3°C 53% 2.5 mph ESE4.0 kmh ESE 5.4 mph8.7 kmh 30.26 in1024.7 mb - 0.00 in0.0 mm 0.00 in0.0 mm
09:50 AM 51.6°F10.9°C 36.0°F2.2°C 55% 2.9 mph ENE4.7 kmh ENE 5.4 mph8.7 kmh 30.25 in1024.4 mb - 0.00 in0.0 mm 0.00 in0.0 mm
09:40 AM 51.5°F10.8°C 35.4°F1.9°C 54% 3.1 mph SE5.0 kmh SE 6.7 mph10.8 kmh 30.25 in1024.4 mb - 0.00 in0.0 mm 0.00 in0.0 mm
09:20 AM 50.6°F10.3°C 34.5°F1.4°C 54% 3.0 mph E4.8 kmh E 2.7 mph4.3 kmh 30.25 in1024.4 mb - 0.00 in0.0 mm 0.00 in0.0 mm
09:10 AM 50.4°F10.2°C 35.3°F1.8°C 56% 2.8 mph ESE4.5 kmh ESE 4.1 mph6.6 kmh 30.24 in1024.0 mb - 0.00 in0.0 mm 0.00 in0.0 mm
08:50 AM 49.0°F9.4°C 33.0°F0.6°C 54% 3.3 mph E5.3 kmh E 4.1 mph6.6 kmh 30.24 in1024.0 mb - 0.00 in0.0 mm 0.00 in0.0 mm
08:40 AM 48.3°F9.1°C 33.8°F1.0°C 57% 2.7 mph ESE4.3 kmh ESE 5.4 mph8.7 kmh 30.24 in1024.0 mb - 0.00 in0.0 mm 0.00 in0.0 mm
08:30 AM 47.7°F8.7°C 35.3°F1.8°C 62% 2.8 mph SE4.5 kmh SE 4.1 mph6.6 kmh 30.23 in1023.7 mb - 0.00 in0.0 mm 0.00 in0.0 mm
08:20 AM 47.5°F8.6°C 36.3°F2.4°C 65% 2.4 mph ESE3.9 kmh ESE 2.7 mph4.3 kmh 30.23 in1023.7 mb - 0.00 in0.0 mm 0.00 in0.0 mm
08:10 AM 47.1°F8.4°C 37.1°F2.8°C 68% 2.8 mph E4.5 kmh E 5.4 mph8.7 kmh 30.23 in1023.7 mb - 0.00 in0.0 mm 0.00 in0.0 mm
08:00 AM 46.3°F7.9°C 39.5°F4.2°C 77% 2.7 mph E4.3 kmh E 2.7 mph4.3 kmh 30.23 in1023.7 mb - 0.00 in0.0 mm 0.00 in0.0 mm
07:50 AM 46.2°F7.9°C 40.0°F4.4°C 79% 1.6 mph SE2.6 kmh SE 2.7 mph4.3 kmh 30.23 in1023.7 mb - 0.00 in0.0 mm 0.00 in0.0 mm
07:30 AM 44.4°F6.9°C 39.2°F4.0°C 82% 2.3 mph SE3.7 kmh SE 2.7 mph4.3 kmh 30.22 in1023.4 mb - 0.00 in0.0 mm 0.00 in0.0 mm
07:20 AM 43.6°F6.4°C 39.4°F4.1°C 85% 1.1 mph SE1.8 kmh SE 2.7 mph4.3 kmh 30.22 in1023.4 mb - 0.00 in0.0 mm 0.00 in0.0 mm
07:10 AM 42.8°F6.0°C 39.2°F4.0°C 87% Calm Calm -- 30.21 in1023.0 mb - 0.00 in0.0 mm 0.00 in0.0 mm
06:50 AM 41.6°F5.3°C 38.9°F3.8°C 90% Calm Calm -- 30.19 in1022.4 mb - 0.00 in0.0 mm 0.00 in0.0 mm
06:40 AM 40.9°F4.9°C 38.5°F3.6°C 91% Calm Calm -- 30.19 in1022.4 mb - 0.00 in0.0 mm 0.00 in0.0 mm
06:20 AM 40.4°F4.7°C 37.9°F3.3°C 91% Calm Calm -- 30.19 in1022.4 mb - 0.00 in0.0 mm 0.00 in0.0 mm
06:00 AM 40.5°F4.7°C 37.5°F3.1°C 89% Calm Calm -- 30.19 in1022.4 mb - 0.00 in0.0 mm 0.00 in0.0 mm
05:50 AM 40.6°F4.8°C 37.6°F3.1°C 89% Calm Calm -- 30.18 in1022.0 mb - 0.00 in0.0 mm 0.00 in0.0 mm
05:40 AM 40.8°F4.9°C 37.5°F3.1°C 88% Calm Calm -- 30.18 in1022.0 mb - 0.00 in0.0 mm 0.00 in0.0 mm
05:30 AM 41.0°F5.0°C 37.8°F3.2°C 88% Calm Calm -- 30.18 in1022.0 mb - 0.00 in0.0 mm 0.00 in0.0 mm
05:20 AM 41.4°F5.2°C 37.8°F3.2°C 87% Calm Calm -- 30.18 in1022.0 mb - 0.00 in0.0 mm 0.00 in0.0 mm
05:10 AM 41.7°F5.4°C 38.1°F3.4°C 87% Calm Calm -- 30.18 in1022.0 mb - 0.00 in0.0 mm 0.00 in0.0 mm
05:00 AM 41.8°F5.4°C 38.3°F3.5°C 87% Calm Calm -- 30.18 in1022.0 mb - 0.00 in0.0 mm 0.00 in0.0 mm
04:40 AM 42.3°F5.7°C 38.1°F3.4°C 85% Calm Calm -- 30.17 in1021.7 mb - 0.00 in0.0 mm 0.00 in0.0 mm
04:30 AM 42.6°F5.9°C 38.4°F3.6°C 85% Calm Calm -- 30.17 in1021.7 mb - 0.00 in0.0 mm 0.00 in0.0 mm
04:20 AM 42.7°F5.9°C 38.8°F3.8°C 86% Calm Calm -- 30.18 in1022.0 mb - 0.00 in0.0 mm 0.00 in0.0 mm
04:10 AM 43.0°F6.1°C 38.5°F3.6°C 84% Calm Calm -- 30.18 in1022.0 mb - 0.00 in0.0 mm 0.00 in0.0 mm
04:00 AM 43.2°F6.2°C 38.3°F3.5°C 83% Calm Calm -- 30.17 in1021.7 mb - 0.00 in0.0 mm 0.00 in0.0 mm
03:50 AM 43.1°F6.2°C 38.3°F3.5°C 83% Calm Calm -- 30.17 in1021.7 mb - 0.00 in0.0 mm 0.00 in0.0 mm
03:40 AM 43.2°F6.2°C 38.1°F3.4°C 82% Calm Calm -- 30.17 in1021.7 mb - 0.00 in0.0 mm 0.00 in0.0 mm
03:30 AM 43.5°F6.4°C 38.1°F3.4°C 81% Calm Calm -- 30.17 in1021.7 mb - 0.00 in0.0 mm 0.00 in0.0 mm
03:20 AM 43.6°F6.4°C 38.5°F3.6°C 82% Calm Calm -- 30.16 in1021.3 mb - 0.00 in0.0 mm 0.00 in0.0 mm
03:10 AM 43.6°F6.4°C 38.8°F3.8°C 83% Calm Calm -- 30.16 in1021.3 mb - 0.00 in0.0 mm 0.00 in0.0 mm
03:00 AM 43.4°F6.3°C 38.8°F3.8°C 84% Calm Calm -- 30.15 in1021.0 mb - 0.00 in0.0 mm 0.00 in0.0 mm
02:40 AM 43.2°F6.2°C 38.3°F3.5°C 83% Calm Calm -- 30.15 in1021.0 mb - 0.00 in0.0 mm 0.00 in0.0 mm
02:30 AM 43.5°F6.4°C 38.1°F3.4°C 81% Calm Calm -- 30.15 in1021.0 mb - 0.00 in0.0 mm 0.00 in0.0 mm
02:20 AM 43.8°F6.6°C 38.4°F3.6°C 81% Calm Calm -- 30.15 in1021.0 mb - 0.00 in0.0 mm 0.00 in0.0 mm
02:10 AM 43.9°F6.6°C 38.5°F3.6°C 81% 0.9 mph SE1.4 kmh SE 1.3 mph2.1 kmh 30.15 in1021.0 mb - 0.00 in0.0 mm 0.00 in0.0 mm
02:00 AM 44.0°F6.7°C 38.5°F3.6°C 81% 0.3 mph SE0.5 kmh SE 2.7 mph4.3 kmh 30.15 in1021.0 mb - 0.00 in0.0 mm 0.00 in0.0 mm
01:50 AM 44.1°F6.7°C 38.7°F3.7°C 81% 1.3 mph SE2.1 kmh SE 1.3 mph2.1 kmh 30.15 in1021.0 mb - 0.00 in0.0 mm 0.00 in0.0 mm
01:40 AM 44.2°F6.8°C 38.4°F3.6°C 80% 1.0 mph SE1.6 kmh SE 1.3 mph2.1 kmh 30.15 in1021.0 mb - 0.00 in0.0 mm 0.00 in0.0 mm
01:30 AM 44.3°F6.8°C 38.6°F3.7°C 80% 1.1 mph SE1.8 kmh SE 2.7 mph4.3 kmh 30.15 in1021.0 mb - 0.00 in0.0 mm 0.00 in0.0 mm
01:10 AM 44.5°F6.9°C 38.7°F3.7°C 80% 0.1 mph SE0.2 kmh SE -- 30.15 in1021.0 mb - 0.00 in0.0 mm 0.00 in0.0 mm
01:00 AM 44.7°F7.1°C 38.6°F3.7°C 79% 1.2 mph SE1.9 kmh SE 2.7 mph4.3 kmh 30.15 in1021.0 mb - 0.00 in0.0 mm 0.00 in0.0 mm
12:50 AM 44.8°F7.1°C 38.7°F3.7°C 79% 0.3 mph SE0.5 kmh SE -- 30.16 in1021.3 mb - 0.00 in0.0 mm 0.00 in0.0 mm
12:40 AM 44.8°F7.1°C 38.4°F3.6°C 78% 1.5 mph SE2.4 kmh SE 2.7 mph4.3 kmh 30.15 in1021.0 mb - 0.00 in0.0 mm 0.00 in0.0 mm
12:30 AM 44.7°F7.1°C 38.3°F3.5°C 78% 1.9 mph SE3.1 kmh SE 2.7 mph4.3 kmh 30.15 in1021.0 mb - 0.00 in0.0 mm 0.00 in0.0 mm
12:20 AM 44.8°F7.1°C 38.1°F3.4°C 77% Calm Calm -- 30.16 in1021.3 mb - 0.00 in0.0 mm 0.00 in0.0 mm
12:00 AM 45.3°F7.4°C 37.8°F3.2°C 75% Calm Calm -- 30.16 in1021.3 mb - 0.00 in0.0 mm 0.00 in0.0 mm